sensor_id;sensor_type;location;lat;lon;timestamp;pressure;altitude;pressure_sealevel;temperature;humidity
83095;BME280;72967;43.674;6.976;2024-01-10T00:01:33;97191.09;;;9.78;59.61
83095;BME280;72967;43.674;6.976;2024-01-10T00:03:58;97193.97;;;9.81;60.54
83095;BME280;72967;43.674;6.976;2024-01-10T00:06:24;97182.38;;;9.76;58.94
83095;BME280;72967;43.674;6.976;2024-01-10T00:08:50;97187.06;;;9.75;58.45
83095;BME280;72967;43.674;6.976;2024-01-10T00:11:15;97196.97;;;9.59;60.44
83095;BME280;72967;43.674;6.976;2024-01-10T00:13:41;97181.19;;;9.56;61.45
83095;BME280;72967;43.674;6.976;2024-01-10T00:16:06;97193.22;;;9.72;59.76
83095;BME280;72967;43.674;6.976;2024-01-10T00:18:33;97201.59;;;9.76;60.99
83095;BME280;72967;43.674;6.976;2024-01-10T00:20:58;97202.34;;;9.85;60.94
83095;BME280;72967;43.674;6.976;2024-01-10T00:23:24;97196.78;;;9.73;61.59
83095;BME280;72967;43.674;6.976;2024-01-10T00:25:49;97201.28;;;9.69;60.52
83095;BME280;72967;43.674;6.976;2024-01-10T00:28:15;97200.88;;;9.58;61.47
83095;BME280;72967;43.674;6.976;2024-01-10T00:30:46;97183.13;;;9.56;61.33
83095;BME280;72967;43.674;6.976;2024-01-10T00:33:13;97189.06;;;9.66;60.32
83095;BME280;72967;43.674;6.976;2024-01-10T00:35:39;97195.47;;;9.70;59.58
83095;BME280;72967;43.674;6.976;2024-01-10T00:38:04;97203.22;;;9.77;59.33
83095;BME280;72967;43.674;6.976;2024-01-10T00:40:30;97204.78;;;9.87;57.63
83095;BME280;72967;43.674;6.976;2024-01-10T00:42:55;97203.13;;;9.94;58.39
83095;BME280;72967;43.674;6.976;2024-01-10T00:45:21;97194.50;;;10.04;57.61
83095;BME280;72967;43.674;6.976;2024-01-10T00:47:48;97188.25;;;9.95;57.85
83095;BME280;72967;43.674;6.976;2024-01-10T00:50:14;97190.59;;;10.05;58.56
83095;BME280;72967;43.674;6.976;2024-01-10T00:52:40;97197.41;;;10.08;58.50
83095;BME280;72967;43.674;6.976;2024-01-10T00:55:05;97193.34;;;10.05;58.17
83095;BME280;72967;43.674;6.976;2024-01-10T00:57:31;97187.59;;;9.98;59.46
83095;BME280;72967;43.674;6.976;2024-01-10T00:59:56;97191.00;;;9.95;59.29
83095;BME280;72967;43.674;6.976;2024-01-10T01:02:22;97190.25;;;9.86;59.99
83095;BME280;72967;43.674;6.976;2024-01-10T01:04:47;97189.00;;;9.75;60.08
83095;BME280;72967;43.674;6.976;2024-01-10T01:07:13;97192.47;;;9.63;61.63
83095;BME280;72967;43.674;6.976;2024-01-10T01:09:38;97193.09;;;9.60;60.79
83095;BME280;72967;43.674;6.976;2024-01-10T01:12:04;97198.31;;;9.53;60.89
83095;BME280;72967;43.674;6.976;2024-01-10T01:14:29;97197.84;;;9.51;60.38
83095;BME280;72967;43.674;6.976;2024-01-10T01:16:54;97196.53;;;9.49;61.03
83095;BME280;72967;43.674;6.976;2024-01-10T01:19:20;97198.78;;;9.55;59.72
83095;BME280;72967;43.674;6.976;2024-01-10T01:21:45;97194.88;;;9.65;60.91
83095;BME280;72967;43.674;6.976;2024-01-10T01:24:11;97194.34;;;9.71;61.18
83095;BME280;72967;43.674;6.976;2024-01-10T01:26:36;97200.03;;;9.66;59.77
83095;BME280;72967;43.674;6.976;2024-01-10T01:29:02;97196.78;;;9.73;59.88
83095;BME280;72967;43.674;6.976;2024-01-10T01:31:27;97197.91;;;9.72;59.31
83095;BME280;72967;43.674;6.976;2024-01-10T01:33:52;97195.66;;;9.74;58.73
83095;BME280;72967;43.674;6.976;2024-01-10T01:36:18;97199.72;;;9.68;58.40
83095;BME280;72967;43.674;6.976;2024-01-10T01:38:43;97195.47;;;9.79;58.29
83095;BME280;72967;43.674;6.976;2024-01-10T01:41:09;97198.66;;;9.81;59.49
83095;BME280;72967;43.674;6.976;2024-01-10T01:43:34;97191.19;;;9.90;58.08
83095;BME280;72967;43.674;6.976;2024-01-10T01:46:00;97197.41;;;9.78;58.02
83095;BME280;72967;43.674;6.976;2024-01-10T01:48:26;97198.66;;;9.81;58.04
83095;BME280;72967;43.674;6.976;2024-01-10T01:50:55;97208.94;;;9.93;57.83
83095;BME280;72967;43.674;6.976;2024-01-10T01:53:22;97201.59;;;9.76;58.20
83095;BME280;72967;43.674;6.976;2024-01-10T01:55:48;97215.75;;;9.87;58.59
83095;BME280;72967;43.674;6.976;2024-01-10T01:58:14;97210.56;;;9.94;59.11
83095;BME280;72967;43.674;6.976;2024-01-10T02:00:39;97214.38;;;10.01;59.55
83095;BME280;72967;43.674;6.976;2024-01-10T02:03:07;97214.75;;;9.91;58.51
83095;BME280;72967;43.674;6.976;2024-01-10T02:05:33;97161.28;;;9.68;59.13
83095;BME280;72967;43.674;6.976;2024-01-10T02:07:58;97218.88;;;10.06;59.18
83095;BME280;72967;43.674;6.976;2024-01-10T02:10:24;97220.81;;;10.05;58.77
83095;BME280;72967;43.674;6.976;2024-01-10T02:12:49;97219.25;;;10.04;59.47
83095;BME280;72967;43.674;6.976;2024-01-10T02:15:15;97217.63;;;10.03;59.20
83095;BME280;72967;43.674;6.976;2024-01-10T02:17:40;97216.28;;;10.09;59.42
83095;BME280;72967;43.674;6.976;2024-01-10T02:20:11;97216.25;;;10.18;60.33
83095;BME280;72967;43.674;6.976;2024-01-10T02:22:37;97215.94;;;10.19;59.40
83095;BME280;72967;43.674;6.976;2024-01-10T02:25:07;97192.38;;;10.10;58.96
83095;BME280;72967;43.674;6.976;2024-01-10T02:27:33;97211.41;;;10.15;59.20
83095;BME280;72967;43.674;6.976;2024-01-10T02:30:02;97209.97;;;10.17;59.37
83095;BME280;72967;43.674;6.976;2024-01-10T02:32:27;97214.97;;;10.15;60.15
83095;BME280;72967;43.674;6.976;2024-01-10T02:34:53;97212.22;;;10.15;60.01
83095;BME280;72967;43.674;6.976;2024-01-10T02:37:18;97202.53;;;10.18;59.83
83095;BME280;72967;43.674;6.976;2024-01-10T02:39:44;97209.47;;;10.15;60.28
83095;BME280;72967;43.674;6.976;2024-01-10T02:42:09;97208.06;;;10.09;60.33
83095;BME280;72967;43.674;6.976;2024-01-10T02:44:34;97212.94;;;10.04;60.37
83095;BME280;72967;43.674;6.976;2024-01-10T02:47:00;97216.50;;;10.04;61.38
83095;BME280;72967;43.674;6.976;2024-01-10T02:49:25;97208.63;;;9.94;60.61
83095;BME280;72967;43.674;6.976;2024-01-10T02:51:51;97209.88;;;9.97;61.52
83095;BME280;72967;43.674;6.976;2024-01-10T02:54:16;97213.44;;;9.97;61.13
83095;BME280;72967;43.674;6.976;2024-01-10T02:56:41;97207.47;;;9.95;61.71
83095;BME280;72967;43.674;6.976;2024-01-10T02:59:07;97205.53;;;9.96;61.05
83095;BME280;72967;43.674;6.976;2024-01-10T03:01:32;97198.63;;;9.90;61.24
83095;BME280;72967;43.674;6.976;2024-01-10T03:03:58;97204.28;;;9.93;61.39
83095;BME280;72967;43.674;6.976;2024-01-10T03:06:23;97205.06;;;9.94;61.58
83095;BME280;72967;43.674;6.976;2024-01-10T03:08:48;97201.34;;;9.90;61.42
83095;BME280;72967;43.674;6.976;2024-01-10T03:11:15;97204.28;;;9.93;61.23
83095;BME280;72967;43.674;6.976;2024-01-10T03:13:40;97194.53;;;9.96;61.22
83095;BME280;72967;43.674;6.976;2024-01-10T03:16:06;97187.72;;;10.02;61.27
83095;BME280;72967;43.674;6.976;2024-01-10T03:18:31;97198.41;;;10.03;60.54
83095;BME280;72967;43.674;6.976;2024-01-10T03:20:57;97192.41;;;10.01;60.67
83095;BME280;72967;43.674;6.976;2024-01-10T03:23:22;97193.34;;;10.05;60.88
83095;BME280;72967;43.674;6.976;2024-01-10T03:25:47;97189.53;;;9.98;60.68
83095;BME280;72967;43.674;6.976;2024-01-10T03:28:17;97190.66;;;9.97;61.36
83095;BME280;72967;43.674;6.976;2024-01-10T03:30:43;97199.03;;;10.00;60.59
83095;BME280;72967;43.674;6.976;2024-01-10T03:33:09;97199.53;;;10.02;61.42
83095;BME280;72967;43.674;6.976;2024-01-10T03:35:34;97195.22;;;9.93;60.90
83095;BME280;72967;43.674;6.976;2024-01-10T03:37:59;97198.16;;;9.88;61.33
83095;BME280;72967;43.674;6.976;2024-01-10T03:40:25;97194.28;;;9.89;61.94
83095;BME280;72967;43.674;6.976;2024-01-10T03:42:50;97193.94;;;9.90;62.06
83095;BME280;72967;43.674;6.976;2024-01-10T03:45:17;97191.78;;;9.96;61.94
83095;BME280;72967;43.674;6.976;2024-01-10T03:47:46;97193.53;;;10.00;61.65
83095;BME280;72967;43.674;6.976;2024-01-10T03:50:15;97195.78;;;10.07;61.60
83095;BME280;72967;43.674;6.976;2024-01-10T03:52:42;97198.84;;;10.05;62.42
83095;BME280;72967;43.674;6.976;2024-01-10T03:55:08;97194.50;;;10.04;62.75
83095;BME280;72967;43.674;6.976;2024-01-10T03:57:34;97182.91;;;9.99;62.83
83095;BME280;72967;43.674;6.976;2024-01-10T03:59:59;97188.91;;;9.92;62.59
83095;BME280;72967;43.674;6.976;2024-01-10T04:02:26;97194.09;;;9.94;62.99
83095;BME280;72967;43.674;6.976;2024-01-10T04:04:53;97183.75;;;9.91;61.94
83095;BME280;72967;43.674;6.976;2024-01-10T04:07:18;97194.91;;;9.94;62.68
83095;BME280;72967;43.674;6.976;2024-01-10T04:09:44;97193.13;;;9.90;62.79
83095;BME280;72967;43.674;6.976;2024-01-10T04:12:09;97194.28;;;9.89;62.71
83095;BME280;72967;43.674;6.976;2024-01-10T04:14:35;97194.13;;;9.85;63.55
83095;BME280;72967;43.674;6.976;2024-01-10T04:17:00;97184.13;;;9.80;63.86
83095;BME280;72967;43.674;6.976;2024-01-10T04:19:26;97184.81;;;9.77;63.33
83095;BME280;72967;43.674;6.976;2024-01-10T04:21:52;97188.69;;;9.76;62.65
83095;BME280;72967;43.674;6.976;2024-01-10T04:24:17;97186.41;;;9.78;63.09
83095;BME280;72967;43.674;6.976;2024-01-10T04:26:43;97194.16;;;9.76;62.80
83095;BME280;72967;43.674;6.976;2024-01-10T04:29:08;97194.13;;;9.85;63.26
83095;BME280;72967;43.674;6.976;2024-01-10T04:31:34;97194.59;;;9.87;62.48
83095;BME280;72967;43.674;6.976;2024-01-10T04:34:01;97189.09;;;9.87;62.78
83095;BME280;72967;43.674;6.976;2024-01-10T04:36:26;97186.56;;;9.82;62.48
83095;BME280;72967;43.674;6.976;2024-01-10T04:38:52;97190.31;;;9.69;63.42
83095;BME280;72967;43.674;6.976;2024-01-10T04:41:17;97187.41;;;9.74;63.00
83095;BME280;72967;43.674;6.976;2024-01-10T04:43:43;97187.88;;;9.76;62.77
83095;BME280;72967;43.674;6.976;2024-01-10T04:46:08;97187.53;;;9.77;63.68
83095;BME280;72967;43.674;6.976;2024-01-10T04:48:36;97186.75;;;9.77;63.22
83095;BME280;72967;43.674;6.976;2024-01-10T04:51:01;97183.56;;;9.66;62.62
83095;BME280;72967;43.674;6.976;2024-01-10T04:53:26;97180.63;;;9.71;62.83
83095;BME280;72967;43.674;6.976;2024-01-10T04:55:52;97184.81;;;9.69;62.96
83095;BME280;72967;43.674;6.976;2024-01-10T04:58:17;97185.50;;;9.66;63.26
83095;BME280;72967;43.674;6.976;2024-01-10T05:00:43;97184.06;;;9.60;63.46
83095;BME280;72967;43.674;6.976;2024-01-10T05:03:08;97183.44;;;9.63;64.16
83095;BME280;72967;43.674;6.976;2024-01-10T05:05:33;97172.78;;;9.61;63.20
83095;BME280;72967;43.674;6.976;2024-01-10T05:07:59;97182.91;;;9.23;64.16
83095;BME280;72967;43.674;6.976;2024-01-10T05:10:26;97178.53;;;9.30;63.98
83095;BME280;72967;43.674;6.976;2024-01-10T05:12:52;97185.34;;;9.24;63.96
83095;BME280;72967;43.674;6.976;2024-01-10T05:15:17;97180.66;;;9.25;63.90
83095;BME280;72967;43.674;6.976;2024-01-10T05:17:43;97182.38;;;9.38;64.20
83095;BME280;72967;43.674;6.976;2024-01-10T05:20:08;97188.84;;;9.33;64.02
83095;BME280;72967;43.674;6.976;2024-01-10T05:22:34;97175.63;;;9.35;64.01
83095;BME280;72967;43.674;6.976;2024-01-10T05:25:00;97161.28;;;9.30;63.27
83095;BME280;72967;43.674;6.976;2024-01-10T05:27:27;97175.44;;;9.41;63.52
83095;BME280;72967;43.674;6.976;2024-01-10T05:29:53;97177.31;;;9.49;63.70
83095;BME280;72967;43.674;6.976;2024-01-10T05:32:18;97175.13;;;9.33;63.64
83095;BME280;72967;43.674;6.976;2024-01-10T05:34:44;97174.59;;;9.49;63.48
83095;BME280;72967;43.674;6.976;2024-01-10T05:37:10;97185.91;;;9.47;63.93
83095;BME280;72967;43.674;6.976;2024-01-10T05:39:35;97174.44;;;9.45;64.28
83095;BME280;72967;43.674;6.976;2024-01-10T05:42:01;97178.66;;;9.43;64.17
83095;BME280;72967;43.674;6.976;2024-01-10T05:44:28;97185.09;;;9.47;64.04
83095;BME280;72967;43.674;6.976;2024-01-10T05:46:54;97178.94;;;9.50;64.40
83095;BME280;72967;43.674;6.976;2024-01-10T05:49:19;97188.41;;;9.23;64.20
83095;BME280;72967;43.674;6.976;2024-01-10T05:51:45;97181.97;;;9.19;65.22
83095;BME280;72967;43.674;6.976;2024-01-10T05:54:10;97187.25;;;9.32;64.74
83095;BME280;72967;43.674;6.976;2024-01-10T05:56:36;97195.13;;;9.34;64.45
83095;BME280;72967;43.674;6.976;2024-01-10T05:59:01;97180.34;;;9.26;64.60
83095;BME280;72967;43.674;6.976;2024-01-10T06:01:27;97183.56;;;9.20;64.45
83095;BME280;72967;43.674;6.976;2024-01-10T06:03:52;97195.63;;;9.27;65.53
83095;BME280;72967;43.674;6.976;2024-01-10T06:06:18;97186.50;;;9.15;65.24
83095;BME280;72967;43.674;6.976;2024-01-10T06:08:43;97181.22;;;8.92;65.26
83095;BME280;72967;43.674;6.976;2024-01-10T06:11:09;97192.97;;;9.02;65.48
83095;BME280;72967;43.674;6.976;2024-01-10T06:13:35;97193.13;;;8.96;65.31
83095;BME280;72967;43.674;6.976;2024-01-10T06:16:03;97200.41;;;8.92;66.54
83095;BME280;72967;43.674;6.976;2024-01-10T06:18:28;97201.22;;;8.76;66.18
83095;BME280;72967;43.674;6.976;2024-01-10T06:20:54;97194.00;;;8.63;66.40
83095;BME280;72967;43.674;6.976;2024-01-10T06:23:19;97191.41;;;8.66;67.33
83095;BME280;72967;43.674;6.976;2024-01-10T06:25:44;97199.44;;;8.71;67.17
83095;BME280;72967;43.674;6.976;2024-01-10T06:28:10;97201.72;;;8.69;66.63
83095;BME280;72967;43.674;6.976;2024-01-10T06:30:35;97196.41;;;8.64;66.45
83095;BME280;72967;43.674;6.976;2024-01-10T06:33:00;97201.06;;;8.72;66.60
83095;BME280;72967;43.674;6.976;2024-01-10T06:35:26;97193.81;;;8.68;66.97
83095;BME280;72967;43.674;6.976;2024-01-10T06:37:51;97187.06;;;8.57;67.43
83095;BME280;72967;43.674;6.976;2024-01-10T06:40:17;97200.44;;;8.67;67.43
83095;BME280;72967;43.674;6.976;2024-01-10T06:42:43;97202.53;;;8.52;67.35
83095;BME280;72967;43.674;6.976;2024-01-10T06:45:09;97202.03;;;8.50;67.72
83095;BME280;72967;43.674;6.976;2024-01-10T06:47:35;97203.00;;;8.46;68.09
83095;BME280;72967;43.674;6.976;2024-01-10T06:50:01;97202.84;;;8.42;67.99
83095;BME280;72967;43.674;6.976;2024-01-10T06:52:26;97202.38;;;8.49;67.05
83095;BME280;72967;43.674;6.976;2024-01-10T06:54:52;97188.69;;;8.49;67.77
83095;BME280;72967;43.674;6.976;2024-01-10T06:57:17;97197.53;;;8.46;67.75
83095;BME280;72967;43.674;6.976;2024-01-10T06:59:43;97199.16;;;8.38;67.64
83095;BME280;72967;43.674;6.976;2024-01-10T07:02:08;97196.84;;;8.23;68.43
83095;BME280;72967;43.674;6.976;2024-01-10T07:04:37;97196.66;;;8.02;69.41
83095;BME280;72967;43.674;6.976;2024-01-10T07:07:02;97192.94;;;7.98;69.62
83095;BME280;72967;43.674;6.976;2024-01-10T07:09:29;97192.97;;;8.07;68.47
83095;BME280;72967;43.674;6.976;2024-01-10T07:11:54;97196.81;;;8.06;68.67
83095;BME280;72967;43.674;6.976;2024-01-10T07:14:20;97186.94;;;7.79;68.78
83095;BME280;72967;43.674;6.976;2024-01-10T07:16:45;97197.88;;;7.88;68.27
83095;BME280;72967;43.674;6.976;2024-01-10T07:19:12;97205.31;;;7.87;68.80
83095;BME280;72967;43.674;6.976;2024-01-10T07:21:39;97211.25;;;7.89;68.39
83095;BME280;72967;43.674;6.976;2024-01-10T07:24:06;97209.84;;;8.00;68.02
83095;BME280;72967;43.674;6.976;2024-01-10T07:26:31;97206.81;;;8.10;67.30
83095;BME280;72967;43.674;6.976;2024-01-10T07:28:57;97208.22;;;7.99;67.46
83095;BME280;72967;43.674;6.976;2024-01-10T07:31:22;97216.66;;;8.20;66.81
83095;BME280;72967;43.674;6.976;2024-01-10T07:33:48;97209.25;;;8.12;66.42
83095;BME280;72967;43.674;6.976;2024-01-10T07:36:14;97219.84;;;8.05;67.91
83095;BME280;72967;43.674;6.976;2024-01-10T07:38:39;97227.44;;;8.17;67.73
83095;BME280;72967;43.674;6.976;2024-01-10T07:41:04;97224.13;;;8.37;67.17
83095;BME280;72967;43.674;6.976;2024-01-10T07:43:30;97228.16;;;8.57;67.18
83095;BME280;72967;43.674;6.976;2024-01-10T07:45:55;97223.97;;;8.59;65.94
83095;BME280;72967;43.674;6.976;2024-01-10T07:48:21;97235.09;;;8.63;65.76
83095;BME280;72967;43.674;6.976;2024-01-10T07:50:46;97232.53;;;8.49;66.54
83095;BME280;72967;43.674;6.976;2024-01-10T07:53:12;97231.72;;;8.48;66.37
83095;BME280;72967;43.674;6.976;2024-01-10T07:55:38;97238.97;;;8.53;66.57
83095;BME280;72967;43.674;6.976;2024-01-10T07:58:03;97242.34;;;8.41;66.48
83095;BME280;72967;43.674;6.976;2024-01-10T08:00:30;97232.00;;;8.30;65.86
83095;BME280;72967;43.674;6.976;2024-01-10T08:02:56;97238.91;;;8.27;65.92
83095;BME280;72967;43.674;6.976;2024-01-10T08:05:23;97240.19;;;8.21;66.52
83095;BME280;72967;43.674;6.976;2024-01-10T08:07:49;97228.22;;;8.08;65.89
83095;BME280;72967;43.674;6.976;2024-01-10T08:10:14;97259.88;;;8.40;65.97
83095;BME280;72967;43.674;6.976;2024-01-10T08:12:40;97249.25;;;8.30;65.56
83095;BME280;72967;43.674;6.976;2024-01-10T08:15:10;97249.78;;;8.49;65.10
83095;BME280;72967;43.674;6.976;2024-01-10T08:17:35;97255.25;;;8.58;65.04
83095;BME280;72967;43.674;6.976;2024-01-10T08:20:04;97261.50;;;8.50;64.83
83095;BME280;72967;43.674;6.976;2024-01-10T08:22:31;97263.13;;;8.77;64.40
83095;BME280;72967;43.674;6.976;2024-01-10T08:24:56;97266.03;;;8.72;64.70
83095;BME280;72967;43.674;6.976;2024-01-10T08:27:22;97257.50;;;8.65;64.47
83095;BME280;72967;43.674;6.976;2024-01-10T08:29:48;97268.94;;;8.58;64.92
83095;BME280;72967;43.674;6.976;2024-01-10T08:32:13;97274.25;;;8.98;64.87
83095;BME280;72967;43.674;6.976;2024-01-10T08:34:40;97279.75;;;8.89;63.13
83095;BME280;72967;43.674;6.976;2024-01-10T08:37:05;97270.22;;;8.86;63.39
83095;BME280;72967;43.674;6.976;2024-01-10T08:39:31;97284.44;;;8.97;63.14
83095;BME280;72967;43.674;6.976;2024-01-10T08:41:59;97277.50;;;9.08;62.70
83095;BME280;72967;43.674;6.976;2024-01-10T08:44:24;97279.91;;;9.27;63.06
83095;BME280;72967;43.674;6.976;2024-01-10T08:46:50;97292.47;;;9.36;63.16
83095;BME280;72967;43.674;6.976;2024-01-10T08:49:18;97293.59;;;9.18;61.88
83095;BME280;72967;43.674;6.976;2024-01-10T08:51:44;97286.34;;;9.22;62.48
83095;BME280;72967;43.674;6.976;2024-01-10T08:54:11;97300.88;;;9.23;62.70
83095;BME280;72967;43.674;6.976;2024-01-10T08:56:42;97297.44;;;9.43;62.67
83095;BME280;72967;43.674;6.976;2024-01-10T08:59:10;97300.69;;;9.36;62.71
83095;BME280;72967;43.674;6.976;2024-01-10T09:01:36;97301.34;;;9.33;62.39
83095;BME280;72967;43.674;6.976;2024-01-10T09:04:04;97284.09;;;9.24;61.45
83095;BME280;72967;43.674;6.976;2024-01-10T09:06:31;97298.44;;;9.30;62.05
83095;BME280;72967;43.674;6.976;2024-01-10T09:08:57;97315.69;;;9.39;60.88
83095;BME280;72967;43.674;6.976;2024-01-10T09:11:22;97316.19;;;9.41;59.87
83095;BME280;72967;43.674;6.976;2024-01-10T09:13:47;97312.16;;;9.30;60.20
83095;BME280;72967;43.674;6.976;2024-01-10T09:16:14;97311.47;;;9.50;61.06
83095;BME280;72967;43.674;6.976;2024-01-10T09:18:40;97316.03;;;9.29;59.77
83095;BME280;72967;43.674;6.976;2024-01-10T09:21:06;97324.28;;;9.37;59.43
83095;BME280;72967;43.674;6.976;2024-01-10T09:23:31;97326.03;;;9.42;59.84
83095;BME280;72967;43.674;6.976;2024-01-10T09:25:57;97329.06;;;9.49;59.82
83095;BME280;72967;43.674;6.976;2024-01-10T09:28:22;97332.94;;;9.57;59.58
83095;BME280;72967;43.674;6.976;2024-01-10T09:30:48;97336.16;;;9.67;58.55
83095;BME280;72967;43.674;6.976;2024-01-10T09:33:14;97343.91;;;9.74;58.89
83095;BME280;72967;43.674;6.976;2024-01-10T09:35:39;97342.91;;;9.70;59.49
83095;BME280;72967;43.674;6.976;2024-01-10T09:38:05;97343.31;;;9.43;58.65
83095;BME280;72967;43.674;6.976;2024-01-10T09:40:30;97343.47;;;9.46;58.46
83095;BME280;72967;43.674;6.976;2024-01-10T09:42:56;97342.16;;;9.52;58.99
83095;BME280;72967;43.674;6.976;2024-01-10T09:45:22;97346.53;;;9.45;58.53
83095;BME280;72967;43.674;6.976;2024-01-10T09:47:52;97348.13;;;9.54;58.29
83095;BME280;72967;43.674;6.976;2024-01-10T09:50:19;97352.94;;;9.66;57.77
83095;BME280;72967;43.674;6.976;2024-01-10T09:52:52;97355.31;;;9.85;57.32
83095;BME280;72967;43.674;6.976;2024-01-10T09:55:22;97347.66;;;9.52;58.61
83095;BME280;72967;43.674;6.976;2024-01-10T09:57:48;97344.06;;;9.77;58.33
83095;BME280;72967;43.674;6.976;2024-01-10T10:00:15;97355.72;;;9.57;56.47
83095;BME280;72967;43.674;6.976;2024-01-10T10:02:41;97352.31;;;9.60;58.99
83095;BME280;72967;43.674;6.976;2024-01-10T10:05:15;97349.41;;;9.65;58.79
83095;BME280;72967;43.674;6.976;2024-01-10T10:07:48;97347.47;;;9.49;58.24
83095;BME280;72967;43.674;6.976;2024-01-10T10:10:15;97351.50;;;9.68;57.83
83095;BME280;72967;43.674;6.976;2024-01-10T10:12:47;97349.75;;;9.55;58.69
83095;BME280;72967;43.674;6.976;2024-01-10T10:15:15;97354.72;;;9.79;57.35
83095;BME280;72967;43.674;6.976;2024-01-10T10:17:43;97340.81;;;9.84;56.98
83095;BME280;72967;43.674;6.976;2024-01-10T10:20:29;97351.19;;;9.44;56.85
83095;BME280;72967;43.674;6.976;2024-01-10T10:23:08;97351.16;;;9.70;57.48
83095;BME280;72967;43.674;6.976;2024-01-10T10:25:45;97346.78;;;9.77;58.41
83095;BME280;72967;43.674;6.976;2024-01-10T10:28:12;97343.56;;;9.84;59.98
83095;BME280;72967;43.674;6.976;2024-01-10T10:30:38;97347.28;;;9.71;57.51
83095;BME280;72967;43.674;6.976;2024-01-10T10:33:05;97337.94;;;9.63;57.83
83095;BME280;72967;43.674;6.976;2024-01-10T10:35:34;97339.41;;;9.52;57.34
83095;BME280;72967;43.674;6.976;2024-01-10T10:37:59;97336.22;;;9.42;57.46
83095;BME280;72967;43.674;6.976;2024-01-10T10:40:25;97326.66;;;9.56;57.70
83095;BME280;72967;43.674;6.976;2024-01-10T10:42:57;97323.28;;;9.51;57.26
83095;BME280;72967;43.674;6.976;2024-01-10T10:45:23;97317.88;;;9.80;56.81
83095;BME280;72967;43.674;6.976;2024-01-10T10:47:57;97320.59;;;9.80;56.64
83095;BME280;72967;43.674;6.976;2024-01-10T10:50:24;97316.94;;;9.59;57.26
83095;BME280;72967;43.674;6.976;2024-01-10T10:52:51;97311.97;;;9.44;56.95
83095;BME280;72967;43.674;6.976;2024-01-10T10:55:18;97313.16;;;9.89;57.07
83095;BME280;72967;43.674;6.976;2024-01-10T10:57:48;97316.00;;;10.01;55.80
83095;BME280;72967;43.674;6.976;2024-01-10T11:00:15;97304.31;;;9.84;54.72
83095;BME280;72967;43.674;6.976;2024-01-10T11:02:41;97304.84;;;9.68;55.06
83095;BME280;72967;43.674;6.976;2024-01-10T11:05:09;97293.84;;;9.68;55.28
83095;BME280;72967;43.674;6.976;2024-01-10T11:07:39;97294.81;;;9.72;54.71
83095;BME280;72967;43.674;6.976;2024-01-10T11:10:12;97292.41;;;10.00;54.50
83095;BME280;72967;43.674;6.976;2024-01-10T11:18:33;97283.69;;;9.60;54.37
83095;BME280;72967;43.674;6.976;2024-01-10T11:23:57;97279.25;;;9.30;53.63
83095;BME280;72967;43.674;6.976;2024-01-10T11:26:23;97277.56;;;9.55;54.36
83095;BME280;72967;43.674;6.976;2024-01-10T11:28:50;97285.56;;;9.22;54.52
83095;BME280;72967;43.674;6.976;2024-01-10T11:31:27;97276.13;;;9.57;53.65
83095;BME280;72967;43.674;6.976;2024-01-10T11:33:55;97276.19;;;9.31;52.93
83095;BME280;72967;43.674;6.976;2024-01-10T11:36:21;97277.44;;;9.43;53.17
83095;BME280;72967;43.674;6.976;2024-01-10T11:41:43;97274.31;;;9.61;53.12
83095;BME280;72967;43.674;6.976;2024-01-10T11:46:42;97255.00;;;9.41;53.50
83095;BME280;72967;43.674;6.976;2024-01-10T11:49:09;97264.53;;;9.34;53.01
83095;BME280;72967;43.674;6.976;2024-01-10T11:51:38;97257.81;;;9.78;53.33
83095;BME280;72967;43.674;6.976;2024-01-10T11:54:04;97248.41;;;9.79;51.52
83095;BME280;72967;43.674;6.976;2024-01-10T11:56:40;97230.38;;;9.70;51.70
83095;BME280;72967;43.674;6.976;2024-01-10T11:59:08;97242.91;;;9.88;53.10
83095;BME280;72967;43.674;6.976;2024-01-10T12:01:35;97241.56;;;9.56;51.81
83095;BME280;72967;43.674;6.976;2024-01-10T12:04:02;97239.63;;;9.57;52.20
83095;BME280;72967;43.674;6.976;2024-01-10T12:06:29;97223.25;;;9.22;50.99
83095;BME280;72967;43.674;6.976;2024-01-10T12:08:55;97229.72;;;9.18;52.24
83095;BME280;72967;43.674;6.976;2024-01-10T12:11:20;97222.56;;;9.43;52.68
83095;BME280;72967;43.674;6.976;2024-01-10T12:13:46;97224.16;;;9.44;53.05
83095;BME280;72967;43.674;6.976;2024-01-10T12:16:13;97209.44;;;9.48;52.46
83095;BME280;72967;43.674;6.976;2024-01-10T12:18:43;97213.41;;;9.30;51.50
83095;BME280;72967;43.674;6.976;2024-01-10T12:21:08;97210.78;;;9.33;52.23
83095;BME280;72967;43.674;6.976;2024-01-10T12:23:37;97210.84;;;9.25;52.75
83095;BME280;72967;43.674;6.976;2024-01-10T12:26:10;97208.38;;;9.41;51.67
83095;BME280;72967;43.674;6.976;2024-01-10T12:28:39;97206.47;;;9.24;51.79
83095;BME280;72967;43.674;6.976;2024-01-10T12:31:05;97210.53;;;9.09;52.37
83095;BME280;72967;43.674;6.976;2024-01-10T12:33:33;97209.94;;;8.95;52.40
83095;BME280;72967;43.674;6.976;2024-01-10T12:36:08;97200.88;;;9.03;52.61
83095;BME280;72967;43.674;6.976;2024-01-10T12:38:35;97201.34;;;9.14;51.88
83095;BME280;72967;43.674;6.976;2024-01-10T12:41:01;97196.50;;;9.02;51.99
83095;BME280;72967;43.674;6.976;2024-01-10T12:43:27;97200.56;;;9.05;51.79
83095;BME280;72967;43.674;6.976;2024-01-10T12:46:05;97196.72;;;8.80;52.54
83095;BME280;72967;43.674;6.976;2024-01-10T12:48:31;97198.97;;;8.95;52.26
83095;BME280;72967;43.674;6.976;2024-01-10T12:50:58;97196.84;;;8.92;52.56
83095;BME280;72967;43.674;6.976;2024-01-10T12:53:28;97194.75;;;8.98;52.63
83095;BME280;72967;43.674;6.976;2024-01-10T12:55:55;97188.66;;;8.83;53.25
83095;BME280;72967;43.674;6.976;2024-01-10T12:58:20;97195.41;;;8.77;53.63
83095;BME280;72967;43.674;6.976;2024-01-10T13:00:45;97182.22;;;8.79;52.73
83095;BME280;72967;43.674;6.976;2024-01-10T13:03:11;97186.41;;;8.85;53.70
83095;BME280;72967;43.674;6.976;2024-01-10T13:05:37;97187.19;;;8.77;52.90
83095;BME280;72967;43.674;6.976;2024-01-10T13:08:03;97188.03;;;8.69;53.61
83095;BME280;72967;43.674;6.976;2024-01-10T13:10:31;97179.72;;;9.12;53.40
83095;BME280;72967;43.674;6.976;2024-01-10T13:12:56;97185.25;;;8.78;52.79
83095;BME280;72967;43.674;6.976;2024-01-10T13:15:21;97179.94;;;8.90;53.61
83095;BME280;72967;43.674;6.976;2024-01-10T13:17:47;97133.38;;;8.56;53.34
83095;BME280;72967;43.674;6.976;2024-01-10T13:20:12;97182.69;;;8.73;53.46